Terminal Aerodrome Forecast
Issued by NWS

Home | Current Version | Previous Version | Text Only | Print | Product List | Glossary On
Versions: 1 2 3 4 5 6 7 8 9 10 11 12 13 14 15 16 17 18 19 20 21 22 23 24 25 26 27 28 29 30 31 32 33 34 35 36
981
FTUS45 KGJT 291136 AAA
TAFVEL
TAF AMD
KVEL 291136Z 2912/3012 06005KT P6SM -RA BKN045 BKN060 OVC080
     FM291500 09005KT P6SM VCSH SCT045 BKN080
     FM291700 23005KT P6SM BKN080
     FM292300 36007KT P6SM BKN090
     FM300500 36005KT P6SM BKN090=

USA.gov is the U.S. government's official web portal to all federal, state and local government web resources and services.